Time;durP1;ratioP1;P1;durP2;ratioP2;P2;SDS_P1;SDS_P2;PMS_P1;PMS_P2;Temp;Humidity;BMP_temperature;BMP_pressure;BME280_temperature;BME280_humidity;BME280_pressure;Samples;Min_cycle;Max_cycle;Signal;HPM_P1;HPM_P2
2022/05/06 19:25:41;;;;;;;12.10;9.95;;;;;;;;;;5296119;23;20061;-95
2022/05/06 19:28:06;;;;;;;11.45;9.95;;;;;;;;;;4963895;28;20418;-95
2022/05/06 19:30:32;;;;;;;13.77;10.95;;;;;;;;;;4961888;28;20536;-96
2022/05/06 19:32:58;;;;;;;14.02;10.90;;;;;;;;;;4965242;28;20031;-96
2022/05/06 19:35:24;;;;;;;12.55;11.25;;;;;;;;;;4964750;28;20041;-93
2022/05/06 19:37:50;;;;;;;13.68;10.75;;;;;;;;;;4976718;28;20027;-92
2022/05/06 19:40:15;;;;;;;13.95;11.55;;;;;;;;;;4959070;28;20023;-91
2022/05/06 19:42:41;;;;;;;15.60;12.32;;;;;;;;;;4959557;28;20026;-92
2022/05/06 19:45:07;;;;;;;14.23;11.77;;;;;;;;;;4958576;28;20095;-92
2022/05/06 19:47:33;;;;;;;14.23;11.80;;;;;;;;;;4959957;28;20027;-93
2022/05/06 19:49:59;;;;;;;13.02;10.65;;;;;;;;;;4958614;28;20049;-91
2022/05/06 19:55:08;;;;;;;13.93;11.80;;;;;;;;;;4975863;28;20486;-91
2022/05/06 19:57:35;;;;;;;12.63;11.27;;;;;;;;;;4958517;28;20054;-92
2022/05/06 20:00:01;;;;;;;13.75;10.77;;;;;;;;;;5012913;23;20039;-93
2022/05/06 20:02:27;;;;;;;13.50;10.80;;;;;;;;;;4934080;29;20497;-86
2022/05/06 20:04:52;;;;;;;14.40;11.98;;;;;;;;;;4952105;29;20084;-89
2022/05/06 20:07:17;;;;;;;14.43;12.32;;;;;;;;;;4949714;29;20090;-91
2022/05/06 20:09:47;;;;;;;13.60;11.38;;;;;;;;;;4952290;29;20056;-89
2022/05/06 20:12:15;;;;;;;12.75;10.35;;;;;;;;;;4923856;29;20067;-89
2022/05/06 20:14:40;;;;;;;13.25;11.13;;;;;;;;;;4939906;29;20522;-87
2022/05/06 20:17:06;;;;;;;14.05;12.27;;;;;;;;;;4940223;29;20028;-88
2022/05/06 20:19:31;;;;;;;13.32;10.82;;;;;;;;;;4940212;29;20030;-90
2022/05/06 20:21:57;;;;;;;15.27;12.13;;;;;;;;;;4939929;29;20032;-91
2022/05/06 20:24:23;;;;;;;15.48;11.23;;;;;;;;;;4922783;29;20561;-88
2022/05/06 20:26:48;;;;;;;14.88;11.90;;;;;;;;;;4939915;29;20076;-88
2022/05/06 20:29:15;;;;;;;17.13;14.15;;;;;;;;;;4939793;29;20027;-88
2022/05/06 20:31:43;;;;;;;14.50;12.35;;;;;;;;;;4939649;29;20027;-88
2022/05/06 20:34:10;;;;;;;14.75;12.23;;;;;;;;;;4922812;29;20028;-89
2022/05/06 20:36:36;;;;;;;14.20;12.10;;;;;;;;;;4921794;29;20029;-87
2022/05/06 20:39:02;;;;;;;15.13;12.73;;;;;;;;;;4920211;29;20054;-87
2022/05/06 20:41:28;;;;;;;14.93;11.73;;;;;;;;;;4920406;29;20103;-86
2022/05/06 20:43:53;;;;;;;14.20;11.85;;;;;;;;;;4903198;29;20066;-86
2022/05/06 20:46:18;;;;;;;13.75;11.38;;;;;;;;;;4903758;29;20039;-88
2022/05/06 20:48:44;;;;;;;13.55;11.23;;;;;;;;;;4920374;29;20044;-89
2022/05/06 20:51:09;;;;;;;12.77;10.82;;;;;;;;;;4920067;29;20032;-89
2022/05/06 20:53:35;;;;;;;15.00;11.43;;;;;;;;;;4920094;29;20064;-88
2022/05/06 20:56:00;;;;;;;14.27;11.32;;;;;;;;;;4919940;29;20032;-87
2022/05/06 21:01:10;;;;;;;15.35;11.70;;;;;;;;;;4919762;29;20108;-87
2022/05/06 21:03:37;;;;;;;13.07;10.90;;;;;;;;;;4903244;29;20097;-87
2022/05/06 21:06:03;;;;;;;16.23;13.02;;;;;;;;;;4919816;29;20031;-87
2022/05/06 21:13:58;;;;;;;15.38;12.73;;;;;;;;;;4919589;29;20064;-89
2022/05/06 21:16:24;;;;;;;22.00;14.07;;;;;;;;;;4919950;29;20032;-87
2022/05/06 21:18:50;;;;;;;17.55;13.52;;;;;;;;;;4926607;29;20034;-89
2022/05/06 21:21:15;;;;;;;17.00;12.95;;;;;;;;;;4921462;29;20036;-88
2022/05/06 21:23:42;;;;;;;18.67;13.27;;;;;;;;;;4938749;29;20024;-87
2022/05/06 21:26:07;;;;;;;15.48;12.70;;;;;;;;;;4939081;29;20032;-87
2022/05/06 21:28:33;;;;;;;18.50;14.32;;;;;;;;;;4938665;29;20490;-89
2022/05/06 21:30:58;;;;;;;17.98;14.02;;;;;;;;;;4931720;29;20356;-86
2022/05/06 21:33:24;;;;;;;20.13;14.75;;;;;;;;;;4919281;29;20419;-88
2022/05/06 21:35:49;;;;;;;18.42;14.13;;;;;;;;;;4919413;29;20028;-88
2022/05/06 21:38:15;;;;;;;19.67;14.88;;;;;;;;;;4919451;29;20039;-90
2022/05/06 21:40:40;;;;;;;19.58;14.88;;;;;;;;;;4919334;29;20077;-86
2022/05/06 21:43:08;;;;;;;21.25;14.98;;;;;;;;;;4919343;29;20024;-87
2022/05/06 21:45:34;;;;;;;19.95;14.45;;;;;;;;;;4919382;29;20028;-87
2022/05/06 21:48:00;;;;;;;22.42;16.08;;;;;;;;;;4919037;29;20036;-87
